• Join FlightAware (Why Join?)
  • Login
  • US Flag 
03:05AM EDT


 

Airport Tracker/Info


-or-


 

Live Flight TrackerFlight Track Log ✈ AFR1326 ✈ 13-Jul-2013 ✈ LFPG / CDG - LIPZ / VCE

Flight Track Log - Related Links

Times and Time Zones

All times are in EDT time to prevent confusion due to time zone crossing. See the AFR1326 flight status page for this flight to view local times or setup timezone preferences in your user account.

Time Position Orientation Groundspeed Altitude Reporting Facility
EDT Latitude Longitude Course Direction KTS MPH feet Rate Location/Type
03:13PM 49.0070 2.5730 194° South 2 2  Level FlightAware
03:17PM 49.0080 2.5720 327° Northwest 9 10 60 Level FlightAware
03:18PM 49.0080 2.5680 270° West 15 17 120 Level FlightAware
03:18PM 49.0080 2.5640 270° West 21 24 120 Level FlightAware
03:19PM 49.0080 2.5610 270° West 19 22 120 Level FlightAware
03:19PM 49.0070 2.5570 249° West 22 25 180 Level FlightAware
03:20PM 49.0040 2.5550 204° Southwest 20 23 180 Level FlightAware
03:21PM 49.0020 2.5560 162° South 23 26 240 Level FlightAware
03:21PM 48.9990 2.5560 180° South 19 22 240 Level FlightAware
03:21PM 48.9980 2.5570 147° Southeast 19 22 300 Level FlightAware
03:22PM 48.9980 2.5580 90° East 10 12 300 Level FlightAware
03:22PM 48.9970 2.5580 180° South 5 6 360 Level FlightAware
03:23PM 48.9960 2.5580 180° South 7 8 480 Level FlightAware
03:23PM 48.9960 2.5590 90° East 16 18 600 Level FlightAware
03:24PM 48.9970 2.5730 84° East 125 144 1,080 Level FlightAware
03:24PM 48.9980 2.6020 87° East 136 157 1,000 2,040 Climbing FlightAware
03:25PM 48.9990 2.6240 86° East 133 153 1,900 2,100 Climbing FlightAware
03:25PM 49.0000 2.6400 85° East 135 155 2,400 2,100 Climbing FlightAware
03:25PM 49.0020 2.6630 82° East 135 155 3,300 1,800 Climbing FlightAware
03:26PM 49.0020 2.6790 90° East 149 171 3,600 900 Climbing FlightAware
03:26PM 49.0040 2.7150 85° East 195 224 4,000 1,260 Climbing FlightAware
03:27PM 49.0060 2.7630 86° East 247 284 4,900 2,640 Climbing FlightAware
03:27PM 49.0030 2.8180 95° East 264 304 6,600 3,600 Climbing FlightAware
03:27PM 49.0000 2.8380 103° East 267 307 7,300 3,540 Climbing FlightAware
03:28PM 48.9960 2.8880 97° East 275 316 8,800 2,880 Climbing FlightAware
03:28PM 48.9870 2.9740 99° East 300 345 10,700 2,580 Climbing FlightAware
03:29PM 48.9790 3.0760 97° East 327 376 12,700 2,760 Climbing FlightAware
03:30PM 48.9710 3.1730 97° East 335 386 14,800 2,700 Climbing FlightAware
03:30PM 48.9630 3.2690 97° East 353 406 16,400 2,580 Climbing FlightAware
03:31PM 48.9420 3.3740 107° East 366 421 18,400 2,640 Climbing FlightAware
03:32PM 48.9200 3.4740 108° East 382 440 20,100 2,400 Climbing FlightAware
03:33PM 48.9000 3.5660 108° East 391 450 21,600 2,280 Climbing FlightAware
03:33PM 48.8760 3.6740 109° East 408 470 23,200 2,280 Climbing FlightAware
03:34PM 48.8470 3.8010 109° East 421 484 24,900 2,280 Climbing FlightAware
03:35PM 48.8200 3.9240 108° East 434 499 26,400 2,460 Climbing FlightAware
03:36PM 48.7810 4.0940 109° East 427 491 29,100 2,640 Climbing FlightAware
03:36PM 48.7550 4.2070 109° East 421 484 30,900 2,400 Climbing FlightAware
03:37PM 48.7280 4.3260 109° East 419 482 32,500 1,740 Climbing FlightAware
03:38PM 48.7050 4.4250 109° East 429 494 33,200 1,440 Climbing FlightAware
03:38PM 48.6730 4.5620 109° East 435 501 34,500 1,620 Climbing FlightAware
03:39PM 48.6460 4.6800 109° East 433 498 35,700 1,680 Climbing FlightAware
03:40PM 48.6250 4.7690 110° East 431 496 36,600 960 Climbing FlightAware
03:40PM 48.5930 4.9040 110° East 448 516 37,000 240 Climbing FlightAware
03:41PM 48.5670 5.0170 109° East 456 525 37,000  Level FlightAware
03:42PM 48.5400 5.1260 110° East 455 524 37,000  Level FlightAware
03:42PM 48.5100 5.2520 110° East 456 525 37,000  Level FlightAware
03:43PM 48.4770 5.3900 110° East 458 527 37,000  Level FlightAware
03:44PM 48.4510 5.4990 110° East 460 529 37,000 60 Level FlightAware
03:44PM 48.4170 5.6370 110° East 459 528 37,100  Climbing FlightAware
03:45PM 48.3880 5.7550 110° East 458 527 37,000 -120 Descending FlightAware
03:46PM 48.3570 5.8840 110° East 455 524 37,000  Level FlightAware
03:47PM 48.3210 6.0280 111° Southeast 449 517 37,000  Level FlightAware
03:47PM 48.2910 6.1470 111° Southeast 448 516 37,000  Level FlightAware
03:48PM 48.2580 6.2780 111° Southeast 452 520 37,000  Level FlightAware
03:49PM 48.2300 6.3930 110° East 453 521 37,000  Level FlightAware
03:49PM 48.1990 6.5130 111° Southeast 456 525 37,000  Level FlightAware
03:50PM 48.1650 6.6470 111° Southeast 460 529 37,000  Level FlightAware
03:51PM 48.1350 6.7670 110° East 464 534 37,000  Level FlightAware
03:52PM 48.1050 6.8810 111° Southeast 462 532 37,000  Level FlightAware
03:52PM 48.0770 6.9880 111° Southeast 464 534 37,000  Level FlightAware
03:53PM 48.0410 7.1270 111° Southeast 466 536 37,000  Level FlightAware
03:54PM 48.0100 7.2470 111° Southeast 466 536 37,000  Level FlightAware
03:54PM 47.9790 7.3650 111° Southeast 466 536 37,000  Level FlightAware
03:55PM 47.9470 7.4860 112° Southeast 464 534 37,000  Level FlightAware
03:56PM 47.9160 7.6000 112° Southeast 464 534 37,000  Level FlightAware
03:56PM 47.8710 7.6990 124° Southeast 467 537 37,000  Level FlightAware
03:57PM 47.8150 7.7990 130° Southeast 465 535 37,000  Level FlightAware
03:57PM 47.7610 7.8980 129° Southeast 463 533 37,000  Level FlightAware
03:58PM 47.7000 8.0070 130° Southeast 461 531 37,000  Level FlightAware
03:59PM 47.6460 8.0990 131° Southeast 468 539 37,000  Level FlightAware
04:00PM 47.5780 8.2170 130° Southeast 467 537 37,000  Level FlightAware
04:00PM 47.5220 8.3140 131° Southeast 467 537 37,000  Level FlightAware
04:01PM 47.4670 8.4070 131° Southeast 467 537 37,000  Level FlightAware
04:02PM 47.4110 8.5020 131° Southeast 468 539 37,000  Level FlightAware
04:02PM 47.3520 8.6020 131° Southeast 468 539 37,000  Level FlightAware
04:03PM 47.2860 8.7140 131° Southeast 469 540 37,000  Level FlightAware
04:04PM 47.2300 8.8090 131° Southeast 469 540 37,000  Level FlightAware
04:04PM 47.1730 8.9050 131° Southeast 469 540 37,000 -180 Level FlightAware
04:05PM 47.1080 9.0120 132° Southeast 466 536 36,800 -480 Descending FlightAware
04:06PM 47.0650 9.0850 131° Southeast 468 539 36,400 -660 Descending FlightAware
04:06PM 46.9980 9.1960 131° Southeast 471 542 36,000 -420 Descending FlightAware
04:07PM 46.9430 9.2880 131° Southeast 461 531 35,800 -600 Descending FlightAware
04:08PM 46.8910 9.3720 132° Southeast 463 533 35,300 -1,500 Descending FlightAware
04:08PM 46.8300 9.4740 131° Southeast 469 540 33,900 -1,920 Descending FlightAware
04:09PM 46.7710 9.5700 132° Southeast 454 522 32,600 -1,920 Descending FlightAware
04:10PM 46.7170 9.6580 132° Southeast 445 512 31,300 -1,980 Descending FlightAware
04:10PM 46.6640 9.7450 132° Southeast 437 503 30,000 -2,040 Descending FlightAware
04:11PM 46.6060 9.8390 132° Southeast 430 495 28,500 -2,040 Descending FlightAware
04:12PM 46.5460 9.9350 132° Southeast 412 474 27,100 -1,140 Descending FlightAware
04:13PM 46.4980 10.0130 132° Southeast 409 471 27,000 -120 Descending FlightAware
04:13PM 46.4510 10.0780 136° Southeast 411 473 27,000  Level FlightAware
04:14PM 46.3820 10.1600 141° Southeast 410 472 27,000 -600 Level FlightAware
04:15PM 46.2980 10.2600 141° Southeast 406 467 25,900 -1,440 Descending FlightAware
04:16PM 46.2190 10.3540 141° Southeast 397 457 24,400 -2,100 Descending FlightAware
04:16PM 46.1630 10.4210 140° Southeast 388 447 23,100 -2,160 Descending FlightAware
04:17PM 46.1090 10.4850 141° Southeast 384 442 21,600 -1,800 Descending FlightAware
04:18PM 46.0560 10.5480 140° Southeast 363 418 20,700 -1,500 Descending FlightAware
04:18PM 46.0410 10.5730 131° Southeast 358 412 20,300 -1,620 Descending FlightAware
04:19PM 46.0100 10.6600 117° Southeast 347 399 19,200 -1,680 Descending FlightAware
04:20PM 45.9730 10.7630 117° Southeast 335 386 17,700 -1,560 Descending FlightAware
04:20PM 45.9500 10.8270 117° Southeast 323 372 17,000 -1,620 Descending FlightAware
04:21PM 45.9210 10.9070 118° Southeast 326 375 15,700 -1,860 Descending FlightAware
04:22PM 45.8900 10.9930 117° Southeast 323 372 14,400 -1,560 Descending FlightAware
04:22PM 45.8610 11.0710 118° Southeast 315 362 13,500 -1,320 Descending FlightAware
04:23PM 45.8390 11.0970 141° Southeast 318 366 13,100 -1,080 Descending FlightAware
04:23PM 45.8250 11.1030 163° South 302 348 13,000 -120 Descending FlightAware
04:23PM 45.7660 11.1030 180° South 281 323 13,000  Level FlightAware
04:24PM 45.7190 11.1010 182° South 285 328 13,000  Level FlightAware
04:25PM 45.6540 11.0990 181° South 287 330 13,000  Level FlightAware
04:25PM 45.6240 11.0950 185° South 282 325 13,000  Level FlightAware
04:25PM 45.6110 11.0830 213° Southwest 277 319 13,000  Level FlightAware
04:26PM 45.5990 11.0540 239° Southwest 268 308 13,000  Level FlightAware
04:26PM 45.6060 11.0100 283° West 254 292 13,000  Level FlightAware
04:26PM 45.6200 10.9950 323° Northwest 248 285 13,000  Level FlightAware
04:27PM 45.6300 10.9910 344° North 247 284 13,000  Level FlightAware
04:27PM 45.6600 11.0080 22° Northeast 263 303 13,000  Level FlightAware
04:27PM 45.6700 11.0360 63° Northeast 269 310 13,000  Level FlightAware
04:28PM 45.6600 11.0860 106° East 278 320 13,000  Level FlightAware
04:28PM 45.6440 11.1030 143° Southeast 287 330 13,000  Level FlightAware
04:28PM 45.6310 11.1080 165° South 278 320 13,000  Level FlightAware
04:29PM 45.5860 11.1040 184° South 275 316 13,000  Level FlightAware
04:29PM 45.5670 11.0790 223° Southwest 271 312 13,000  Level FlightAware
04:29PM 45.5630 11.0640 249° West 271 312 13,000  Level FlightAware
04:30PM 45.5610 11.0470 260° West 265 305 13,000  Level FlightAware
04:30PM 45.5720 11.0140 295° West 255 293 13,000  Level FlightAware
04:30PM 45.5800 11.0050 322° Northwest 251 289 13,000  Level FlightAware
04:30PM 45.5980 11.0000 349° North 256 295 13,000  Level FlightAware
04:31PM 45.6320 11.0170 19° North 249 287 13,000  Level FlightAware
04:31PM 45.6630 11.0310 18° North 226 260 13,000  Level FlightAware
04:32PM 45.7060 11.0330 North 223 257 13,000  Level FlightAware
04:33PM 45.7480 11.0060 336° Northwest 236 272 13,000  Level FlightAware
04:33PM 45.7510 10.9890 284° West 241 277 13,000  Level FlightAware
04:33PM 45.7390 10.9480 247° West 253 291 13,000  Level FlightAware
04:34PM 45.7290 10.9390 212° Southwest 250 288 13,000  Level FlightAware
04:34PM 45.7190 10.9360 192° South 262 302 13,000  Level FlightAware
04:34PM 45.6920 10.9530 156° South 259 298 13,000  Level FlightAware
04:34PM 45.6840 10.9770 116° Southeast 251 289 13,000  Level FlightAware
04:35PM 45.6680 11.0190 119° Southeast 252 290 13,000  Level FlightAware
04:35PM 45.6510 11.0260 164° South 261 300 13,000  Level FlightAware
04:35PM 45.6280 11.0220 187° South 259 298 13,000  Level FlightAware
04:36PM 45.6150 11.0030 226° Southwest 247 284 13,000  Level FlightAware
04:36PM 45.6120 10.9890 253° West 244 281 13,000  Level FlightAware
04:37PM 45.6330 10.9320 298° West 229 264 13,000  Level FlightAware
04:37PM 45.6480 10.9290 352° North 228 262 13,000  Level FlightAware
04:38PM 45.7100 10.9310 North 230 265 13,000  Level FlightAware
04:38PM 45.7340 10.9360 North 234 269 13,000  Level FlightAware
04:38PM 45.7450 10.9490 40° Northeast 239 275 13,000  Level FlightAware
04:39PM 45.7520 10.9750 69° East 247 284 13,000  Level FlightAware
04:39PM 45.7400 11.0190 111° Southeast 252 290 13,000  Level FlightAware
04:39PM 45.7280 11.0280 152° Southeast 254 292 13,000  Level FlightAware
04:40PM 45.7170 11.0300 173° South 262 302 13,000  Level FlightAware
04:40PM 45.6640 11.0280 182° South 260 299 13,000  Level FlightAware
04:41PM 45.6210 11.0270 181° South 259 298 13,000  Level FlightAware
04:42PM 45.5650 11.0230 183° South 262 302 13,000  Level FlightAware
04:42PM 45.5180 11.0150 187° South 259 298 13,000 180 Level FlightAware
04:43PM 45.4720 10.9770 210° Southwest 245 282 13,300 1,200 Climbing FlightAware
04:44PM 45.4370 10.9290 224° Southwest 281 323 14,700 1,260 Climbing FlightAware
04:44PM 45.4050 10.8750 230° Southwest 261 300 15,000 180 Climbing FlightAware
04:45PM 45.3640 10.8210 223° Southwest 272 313 15,000  Level FlightAware
04:46PM 45.3120 10.7970 198° South 276 318 15,000  Level FlightAware
04:47PM 45.2590 10.7940 182° South 278 320 15,000  Level FlightAware
04:47PM 45.2070 10.7940 180° South 272 313 15,000  Level FlightAware
04:48PM 45.1700 10.8050 168° South 272 313 15,000  Level FlightAware
04:48PM 45.1210 10.8290 161° South 273 314 15,000  Level FlightAware
04:49PM 45.0710 10.8530 161° South 276 318 15,000  Level FlightAware
04:50PM 45.0220 10.8970 148° Southeast 274 315 15,000  Level FlightAware
04:51PM 44.9770 10.9500 140° Southeast 277 319 15,000  Level FlightAware
04:51PM 44.9380 10.9950 141° Southeast 282 325 15,000  Level FlightAware
04:52PM 44.9010 11.0510 133° Southeast 280 322 15,000  Level FlightAware
04:53PM 44.8660 11.1070 131° Southeast 280 322 15,000  Level FlightAware
04:53PM 44.8270 11.1710 131° Southeast 279 321 15,000  Level FlightAware
04:54PM 44.7920 11.2270 131° Southeast 282 325 15,000  Level FlightAware
04:55PM 44.7540 11.2900 130° Southeast 281 323 15,000  Level FlightAware
04:55PM 44.7210 11.3460 130° Southeast 280 322 15,000  Level FlightAware
04:56PM 44.6880 11.4010 130° Southeast 281 323 15,000  Level FlightAware
04:57PM 44.6530 11.4600 130° Southeast 279 321 15,000  Level FlightAware
04:57PM 44.6390 11.5050 114° Southeast 287 330 15,000  Level FlightAware
04:58PM 44.6570 11.5500 61° Northeast 282 325 15,000  Level FlightAware
04:58PM 44.6900 11.5810 34° Northeast 275 316 15,000  Level FlightAware
04:58PM 44.7030 11.5840 North 258 297 15,000  Level FlightAware
04:59PM 44.7210 11.5770 345° North 251 289 15,000  Level FlightAware
04:59PM 44.7340 11.5620 321° Northwest 248 285 15,000  Level FlightAware
04:59PM 44.7400 11.5410 292° West 242 278 15,000  Level FlightAware
05:00PM 44.7330 11.5040 255° West 247 284 15,000  Level FlightAware
05:00PM 44.7020 11.4570 227° Southwest 242 278 15,000  Level FlightAware
05:01PM 44.6710 11.4140 225° Southwest 244 281 15,000  Level FlightAware
05:01PM 44.6640 11.3900 248° West 243 280 15,000  Level FlightAware
05:02PM 44.6510 11.3390 250° West 242 278 15,000  Level FlightAware
05:02PM 44.6330 11.2780 247° West 245 282 15,000  Level FlightAware
05:03PM 44.6170 11.2200 249° West 246 283 15,000  Level FlightAware
05:04PM 44.6000 11.1510 251° West 247 284 15,000 -480 Level FlightAware
05:04PM 44.6180 11.1120 303° West 251 289 14,400 -1,200 Descending FlightAware
05:04PM 44.6300 11.1070 343° North 247 284 14,200 -1,200 Descending FlightAware
05:05PM 44.6650 11.1100 North 247 284 13,600 -1,140 Descending FlightAware
05:06PM 44.7130 11.1160 North 243 280 12,900 -1,260 Descending FlightAware
05:07PM 44.7840 11.0850 343° North 239 275 11,300 -1,200 Descending FlightAware
05:07PM 44.7810 11.0490 263° West 237 273 10,900 -1,140 Descending FlightAware
05:08PM 44.7740 10.9860 261° West 234 269 10,100 -1,500 Descending FlightAware
05:08PM 44.7660 10.9420 256° West 235 270 9,200 -1,740 Descending FlightAware
05:09PM 44.7550 10.9280 222° Southwest 236 272 8,800 -1,620 Descending FlightAware
05:09PM 44.7300 10.9070 211° Southwest 241 277 8,100 -1,440 Descending FlightAware
05:10PM 44.7010 10.8820 212° Southwest 231 266 7,500 -1,320 Descending FlightAware
05:10PM 44.6730 10.8590 210° Southwest 232 267 6,800 -1,380 Descending FlightAware
05:11PM 44.6490 10.8380 212° Southwest 231 266 6,300 -1,140 Descending FlightAware
05:11PM 44.6290 10.8280 200° South 238 274 5,800 -1,560 Descending FlightAware
05:12PM 44.5990 10.8680 136° Southeast 239 275 4,700 -2,040 Descending FlightAware
05:12PM 44.5980 10.9060 92° East 246 283 3,900 -1,740 Descending FlightAware
05:12PM 44.5980 10.9410 90° East 246 283 3,400 -1,260 Descending FlightAware
05:13PM 44.5970 10.9830 92° East 237 273 2,900 -1,020 Descending FlightAware
05:13PM 44.5970 11.0200 90° East 225 259 2,500 -480 Descending FlightAware
05:14PM 44.5960 11.0600 92° East 202 232 2,500  Level FlightAware
05:14PM 44.5960 11.0810 90° East 195 224 2,500  Level FlightAware
05:14PM 44.5960 11.1100 90° East 179 206 2,500 -480 Level FlightAware
05:15PM 44.5930 11.1270 104° East 176 203 2,200 -840 Descending FlightAware
05:15PM 44.5880 11.1410 117° Southeast 176 203 2,100 -660 Descending FlightAware
05:15PM 44.5810 11.1610 116° Southeast 159 183 1,800 -780 Descending FlightAware
05:16PM 44.5710 11.1880 117° Southeast 124 143 1,400 -480 Descending FlightAware
05:16PM 44.5670 11.2040 109° East 124 143 1,400  Level FlightAware
05:19PM 44.6899 11.3515 40° Northeast  Level Estimated
05:20PM 44.7433 11.4158 41° Northeast  Level Estimated
05:21PM 44.7966 11.4802 41° Northeast  Level Estimated
05:22PM 44.8499 11.5447 41° Northeast  Level Estimated
05:23PM 44.9032 11.6094 41° Northeast  Level Estimated
05:24PM 44.9564 11.6742 41° Northeast  Level Estimated
05:25PM 45.0096 11.7391 41° Northeast  Level Estimated
05:26PM 45.0627 11.8041 41° Northeast  Level Estimated
05:27PM 45.1158 11.8693 41° Northeast  Level Estimated
05:28PM 45.1689 11.9345 41° Northeast  Level Estimated
05:29PM 45.2220 11.9999 41° Northeast  Level Estimated
05:30PM 45.2750 12.0654 41° Northeast  Level Estimated
05:31PM 45.3279 12.1311 41° Northeast  Level Estimated